createdAt,value
2019-01-13T00:01:20.105Z,7.70
2019-01-13T00:03:50.087Z,7.80
2019-01-13T00:06:20.840Z,7.80
2019-01-13T00:08:50.925Z,7.70
2019-01-13T00:11:22.358Z,7.70
2019-01-13T00:13:52.141Z,7.70
2019-01-13T00:16:22.465Z,7.70
2019-01-13T00:18:52.400Z,7.70
2019-01-13T00:21:22.074Z,7.80
2019-01-13T00:23:52.923Z,7.80
2019-01-13T00:26:22.728Z,7.80
2019-01-13T00:28:52.622Z,7.70
2019-01-13T00:31:23.895Z,7.80
2019-01-13T00:33:54.026Z,7.80
2019-01-13T00:36:23.855Z,7.70
2019-01-13T00:38:56.425Z,7.70
2019-01-13T00:41:26.109Z,7.70
2019-01-13T00:43:56.060Z,7.70
2019-01-13T00:46:26.265Z,7.80
2019-01-13T00:48:57.117Z,7.80
2019-01-13T00:51:26.854Z,7.80
2019-01-13T00:53:56.623Z,7.80
2019-01-13T00:56:26.728Z,7.70
2019-01-13T00:58:56.592Z,7.70
2019-01-13T01:01:28.632Z,7.80
2019-01-13T01:04:02.568Z,7.80
2019-01-13T01:06:35.157Z,7.80
2019-01-13T01:09:07.953Z,7.80
2019-01-13T01:11:37.981Z,7.80
2019-01-13T01:14:09.213Z,7.80
2019-01-13T01:16:39.113Z,7.80
2019-01-13T01:19:08.966Z,7.80
2019-01-13T01:21:44.435Z,7.80
2019-01-13T01:24:14.301Z,7.80
2019-01-13T01:26:46.064Z,7.80
2019-01-13T01:29:15.922Z,7.80
2019-01-13T01:31:45.805Z,7.80
2019-01-13T01:34:15.854Z,7.80
2019-01-13T01:36:57.271Z,7.80
2019-01-13T01:39:33.370Z,7.80
2019-01-13T01:42:07.537Z,7.90
2019-01-13T01:44:38.441Z,7.90
2019-01-13T01:47:08.173Z,7.90
2019-01-13T01:49:39.076Z,7.90
2019-01-13T01:52:14.758Z,7.90
2019-01-13T01:54:49.274Z,7.90
2019-01-13T01:57:25.953Z,7.90
2019-01-13T01:59:55.859Z,7.90
2019-01-13T02:02:26.814Z,7.90
2019-01-13T02:04:58.364Z,7.80
2019-01-13T02:07:29.784Z,7.80
2019-01-13T02:10:01.280Z,7.80
2019-01-13T02:12:32.149Z,7.90
2019-01-13T02:15:01.984Z,7.90
2019-01-13T02:17:33.343Z,7.90
2019-01-13T02:20:05.516Z,7.80
2019-01-13T02:22:35.761Z,7.90
2019-01-13T02:25:10.591Z,7.90
2019-01-13T02:27:41.381Z,7.90
2019-01-13T02:30:14.669Z,7.80
2019-01-13T02:32:44.557Z,7.90
2019-01-13T02:35:16.138Z,7.80
2019-01-13T02:37:47.097Z,7.90
2019-01-13T02:40:24.072Z,7.90
2019-01-13T02:42:53.992Z,7.80
2019-01-13T02:45:27.059Z,7.80
2019-01-13T02:47:58.721Z,7.90
2019-01-13T02:50:28.461Z,7.90
2019-01-13T02:52:58.395Z,7.90
2019-01-13T02:55:32.637Z,7.90
2019-01-13T02:58:05.253Z,7.90
2019-01-13T03:00:35.664Z,7.90
2019-01-13T03:03:06.096Z,7.90
2019-01-13T03:05:38.009Z,7.80
2019-01-13T03:08:09.602Z,7.90
2019-01-13T03:10:39.516Z,7.90
2019-01-13T03:13:09.391Z,7.90
2019-01-13T03:15:40.271Z,7.90
2019-01-13T03:18:11.166Z,7.90
2019-01-13T03:20:41.134Z,7.90
2019-01-13T03:23:12.532Z,7.90
2019-01-13T03:25:42.595Z,7.90
2019-01-13T03:28:14.849Z,7.90
2019-01-13T03:30:44.675Z,7.90
2019-01-13T03:33:14.472Z,7.90
2019-01-13T03:35:45.776Z,7.90
2019-01-13T03:38:17.239Z,7.90
2019-01-13T03:40:47.132Z,7.90
2019-01-13T03:43:17.966Z,7.90
2019-01-13T03:45:47.901Z,7.90
2019-01-13T03:48:21.877Z,7.90
2019-01-13T03:50:51.912Z,7.90
2019-01-13T03:53:23.023Z,7.90
2019-01-13T03:55:52.997Z,8.00
2019-01-13T03:58:22.905Z,7.90
2019-01-13T04:00:52.797Z,7.90
2019-01-13T04:03:23.676Z,7.90
2019-01-13T04:05:55.357Z,7.90
2019-01-13T04:08:28.592Z,7.90
2019-01-13T04:10:59.803Z,8.00
2019-01-13T04:13:29.680Z,7.90
2019-01-13T04:15:59.780Z,7.90
2019-01-13T04:18:31.413Z,8.00
2019-01-13T04:21:01.586Z,8.00
2019-01-13T04:23:33.085Z,8.00
2019-01-13T04:26:03.250Z,8.00
2019-01-13T04:28:35.229Z,8.00
2019-01-13T04:31:06.747Z,8.00
2019-01-13T04:33:36.725Z,8.00
2019-01-13T04:36:07.911Z,8.00
2019-01-13T04:38:41.999Z,8.00
2019-01-13T04:41:11.921Z,8.10
2019-01-13T04:43:42.128Z,8.10
2019-01-13T04:46:13.372Z,8.10
2019-01-13T04:48:44.563Z,8.10
2019-01-13T04:51:14.742Z,8.10
2019-01-13T04:53:44.777Z,8.10
2019-01-13T04:56:17.603Z,8.10
2019-01-13T04:58:47.505Z,8.00
2019-01-13T05:01:20.638Z,8.00
2019-01-13T05:03:51.733Z,8.10
2019-01-13T05:06:21.607Z,8.10
2019-01-13T05:08:51.847Z,8.10
2019-01-13T05:11:24.899Z,8.10
2019-01-13T05:13:57.455Z,8.20
2019-01-13T05:16:36.587Z,8.10
2019-01-13T05:19:07.676Z,8.20
2019-01-13T05:21:37.875Z,8.20
2019-01-13T05:24:07.988Z,8.20
2019-01-13T05:26:38.885Z,8.20
2019-01-13T05:29:11.678Z,8.20
2019-01-13T05:31:42.033Z,8.20
2019-01-13T05:34:12.305Z,8.20
2019-01-13T05:36:42.093Z,8.20
2019-01-13T05:39:12.013Z,8.30
2019-01-13T05:41:42.192Z,8.20
2019-01-13T05:44:12.003Z,8.20
2019-01-13T05:46:44.238Z,8.30
2019-01-13T05:49:14.213Z,8.30
2019-01-13T05:51:44.075Z,8.30
2019-01-13T05:54:15.532Z,8.30
2019-01-13T05:56:45.446Z,8.30
2019-01-13T05:59:15.302Z,8.40
2019-01-13T06:01:49.217Z,8.30
2019-01-13T06:04:19.377Z,8.30
2019-01-13T06:06:50.856Z,8.40
2019-01-13T06:09:20.718Z,8.40
2019-01-13T06:11:53.330Z,8.40
2019-01-13T06:14:23.163Z,8.40
2019-01-13T06:16:53.280Z,8.40
2019-01-13T06:19:23.321Z,8.40
2019-01-13T06:21:53.086Z,8.40
2019-01-13T06:24:23.810Z,8.40
2019-01-13T06:26:53.704Z,8.40
2019-01-13T06:29:23.502Z,8.40
2019-01-13T06:31:56.490Z,8.50
2019-01-13T06:34:25.053Z,8.40
2019-01-13T06:36:56.920Z,8.50
2019-01-13T06:39:27.052Z,8.50
2019-01-13T06:41:58.291Z,8.50
2019-01-13T06:44:29.616Z,8.50
2019-01-13T06:46:59.648Z,8.50
2019-01-13T06:49:29.444Z,8.50
2019-01-13T06:51:59.299Z,8.50
2019-01-13T06:54:29.167Z,8.50
2019-01-13T06:57:00.840Z,8.50
2019-01-13T06:59:33.295Z,8.50
2019-01-13T07:02:03.562Z,8.60
2019-01-13T07:04:33.211Z,8.60
2019-01-13T07:07:08.926Z,8.60
2019-01-13T07:09:39.631Z,8.60
2019-01-13T07:12:09.407Z,8.70
2019-01-13T07:14:39.733Z,8.60
2019-01-13T07:17:09.661Z,8.70
2019-01-13T07:19:40.471Z,8.70
2019-01-13T07:22:11.240Z,8.70
2019-01-13T07:24:42.103Z,8.70
2019-01-13T07:27:14.771Z,8.80
2019-01-13T07:29:44.883Z,8.80
2019-01-13T07:32:14.737Z,8.80
2019-01-13T07:34:45.541Z,8.80
2019-01-13T07:37:15.901Z,8.90
2019-01-13T07:39:45.594Z,8.90
2019-01-13T07:42:18.960Z,8.90
2019-01-13T07:44:48.984Z,9.00
2019-01-13T07:47:19.977Z,9.00
2019-01-13T07:49:50.584Z,9.00
2019-01-13T07:52:20.479Z,9.10
2019-01-13T07:54:51.573Z,9.10
2019-01-13T07:57:21.389Z,9.10
2019-01-13T07:59:58.877Z,9.10
2019-01-13T08:02:28.674Z,9.10
2019-01-13T08:05:00.904Z,9.10
2019-01-13T08:07:30.745Z,9.20
2019-01-13T08:10:00.555Z,9.10
2019-01-13T08:12:30.291Z,9.20
2019-01-13T08:15:01.291Z,9.20
2019-01-13T08:17:32.931Z,9.20
2019-01-13T08:20:03.086Z,9.20
2019-01-13T08:22:35.432Z,9.20
2019-01-13T08:25:10.123Z,9.20
2019-01-13T08:27:41.271Z,9.20
2019-01-13T08:30:16.852Z,9.20
2019-01-13T08:32:47.875Z,9.30
2019-01-13T08:35:18.294Z,9.20
2019-01-13T08:37:49.204Z,9.30
2019-01-13T08:40:20.795Z,9.30
2019-01-13T08:42:50.815Z,9.30
2019-01-13T08:45:22.330Z,9.30
2019-01-13T08:47:57.798Z,9.30
2019-01-13T08:50:25.790Z,9.30
2019-01-13T08:52:56.853Z,9.30
2019-01-13T08:55:28.952Z,9.30
2019-01-13T08:58:02.791Z,9.30
2019-01-13T09:00:33.745Z,9.30
2019-01-13T09:03:03.571Z,9.30
2019-01-13T09:05:33.520Z,9.30
2019-01-13T09:08:03.848Z,9.40
2019-01-13T09:10:33.895Z,9.40
2019-01-13T09:13:03.968Z,9.40
2019-01-13T09:15:33.895Z,9.40
2019-01-13T09:18:03.928Z,9.40
2019-01-13T09:20:33.857Z,9.40
2019-01-13T09:23:04.496Z,9.40
2019-01-13T09:25:34.345Z,9.40
2019-01-13T09:28:05.185Z,9.40
2019-01-13T09:30:34.992Z,9.30
2019-01-13T09:33:07.753Z,9.30
2019-01-13T09:35:38.619Z,9.30
2019-01-13T09:38:08.584Z,9.30
2019-01-13T09:40:39.987Z,9.40
2019-01-13T09:43:11.837Z,9.40
2019-01-13T09:45:42.519Z,9.40
2019-01-13T09:48:12.302Z,9.40
2019-01-13T09:50:43.175Z,9.30
2019-01-13T09:53:16.463Z,9.30
2019-01-13T09:55:52.294Z,9.30
2019-01-13T09:58:22.222Z,9.30
2019-01-13T10:00:52.036Z,9.30
2019-01-13T10:03:21.967Z,9.30
2019-01-13T10:05:51.839Z,9.30
2019-01-13T10:08:25.352Z,9.30
2019-01-13T10:10:55.244Z,9.20
2019-01-13T10:13:25.210Z,9.30
2019-01-13T10:15:54.912Z,9.30
2019-01-13T10:18:24.874Z,9.30
2019-01-13T10:20:56.758Z,9.30
2019-01-13T10:23:26.567Z,9.30
2019-01-13T10:25:56.271Z,9.30
2019-01-13T10:28:26.100Z,9.40
2019-01-13T10:31:02.998Z,9.30
2019-01-13T10:33:27.571Z,9.40
2019-01-13T10:35:57.605Z,9.40
2019-01-13T10:38:27.416Z,9.40
2019-01-13T10:40:59.244Z,9.40
2019-01-13T10:43:31.057Z,9.40
2019-01-13T10:46:01.015Z,9.40
2019-01-13T10:48:30.941Z,9.50
2019-01-13T10:51:03.225Z,9.40
2019-01-13T10:53:34.146Z,9.40
2019-01-13T10:56:04.119Z,9.40
2019-01-13T10:58:33.872Z,9.40
2019-01-13T11:01:04.034Z,9.40
2019-01-13T11:03:38.568Z,9.40
2019-01-13T11:06:11.030Z,9.40
2019-01-13T11:08:41.958Z,9.40
2019-01-13T11:11:14.225Z,9.40
2019-01-13T11:13:44.068Z,9.40
2019-01-13T11:16:16.523Z,9.40
2019-01-13T11:18:46.416Z,9.40
2019-01-13T11:21:17.967Z,9.50
2019-01-13T11:23:48.180Z,9.50
2019-01-13T11:26:22.963Z,9.50
2019-01-13T11:28:53.035Z,9.50
2019-01-13T11:31:22.950Z,9.50
2019-01-13T11:33:54.139Z,9.50
2019-01-13T11:36:42.187Z,9.50
2019-01-13T11:39:18.535Z,9.60
2019-01-13T11:42:01.373Z,9.60
2019-01-13T11:44:45.443Z,9.50
2019-01-13T11:47:15.621Z,9.60
2019-01-13T11:49:45.409Z,9.50
2019-01-13T11:52:15.258Z,9.50
2019-01-13T11:54:45.250Z,9.50
2019-01-13T11:57:14.981Z,9.50
2019-01-13T11:59:48.983Z,9.50
2019-01-13T12:02:18.996Z,9.50
2019-01-13T12:04:48.999Z,9.50
2019-01-13T12:07:21.351Z,9.50
2019-01-13T12:09:53.432Z,9.50
2019-01-13T12:12:24.000Z,9.50
2019-01-13T12:14:53.973Z,9.50
2019-01-13T12:17:23.764Z,9.50
2019-01-13T12:19:54.703Z,9.50
2019-01-13T12:22:30.506Z,9.40
2019-01-13T12:25:02.775Z,9.40
2019-01-13T12:27:34.319Z,9.40
2019-01-13T12:30:07.256Z,9.40
2019-01-13T12:32:37.168Z,9.40
2019-01-13T12:35:08.042Z,9.40
2019-01-13T12:37:37.830Z,9.40
2019-01-13T12:40:10.750Z,9.40
2019-01-13T12:42:45.657Z,9.40
2019-01-13T12:45:18.879Z,9.40
2019-01-13T12:47:49.395Z,9.40
2019-01-13T12:50:21.884Z,9.50
2019-01-13T12:52:52.823Z,9.40
2019-01-13T12:55:22.764Z,9.40
2019-01-13T12:57:53.840Z,9.50
2019-01-13T13:00:28.128Z,9.50
2019-01-13T13:02:57.997Z,9.40
2019-01-13T13:05:27.949Z,9.50
2019-01-13T13:07:57.929Z,9.50
2019-01-13T13:10:35.317Z,9.40
2019-01-13T13:13:08.813Z,9.40
2019-01-13T13:15:38.750Z,9.40
2019-01-13T13:18:08.501Z,9.40
2019-01-13T13:20:38.363Z,9.40
2019-01-13T13:23:10.590Z,9.40
2019-01-13T13:25:40.504Z,9.50
2019-01-13T13:28:10.525Z,9.50
2019-01-13T13:30:42.506Z,9.50
2019-01-13T13:33:12.330Z,9.40
2019-01-13T13:35:42.213Z,9.40
2019-01-13T13:38:14.473Z,9.40
2019-01-13T13:40:44.421Z,9.40
2019-01-13T13:43:15.296Z,9.50
2019-01-13T13:45:45.185Z,9.40
2019-01-13T13:48:15.127Z,9.50
2019-01-13T13:50:45.027Z,9.50
2019-01-13T13:53:14.843Z,9.40
2019-01-13T13:55:44.804Z,9.50
2019-01-13T13:58:14.653Z,9.40
2019-01-13T14:00:45.006Z,9.50
2019-01-13T14:03:15.056Z,9.40
2019-01-13T14:05:45.008Z,9.40
2019-01-13T14:08:14.954Z,9.50
2019-01-13T14:10:47.365Z,9.50
2019-01-13T14:13:17.418Z,9.40
2019-01-13T14:15:47.219Z,9.40
2019-01-13T14:18:17.333Z,9.40
2019-01-13T14:20:47.228Z,9.40
2019-01-13T14:23:17.147Z,9.40
2019-01-13T14:25:48.634Z,9.40
2019-01-13T14:28:19.562Z,9.40
2019-01-13T14:30:49.275Z,9.40
2019-01-13T14:33:19.650Z,9.40
2019-01-13T14:35:56.363Z,9.40
2019-01-13T14:38:26.409Z,9.40
2019-01-13T14:40:57.673Z,9.40
2019-01-13T14:43:27.365Z,9.40
2019-01-13T14:45:57.425Z,9.40
2019-01-13T14:48:27.345Z,9.40
2019-01-13T14:50:57.456Z,9.40
2019-01-13T14:53:28.303Z,9.40
2019-01-13T14:55:59.449Z,9.40
2019-01-13T14:58:29.317Z,9.40
2019-01-13T15:00:59.042Z,9.40
2019-01-13T15:03:28.926Z,9.40
2019-01-13T15:05:59.786Z,9.40
2019-01-13T15:08:31.059Z,9.40
2019-01-13T15:11:02.548Z,9.40
2019-01-13T15:13:32.595Z,9.40
2019-01-13T15:16:02.547Z,9.40
2019-01-13T15:18:33.376Z,9.40
2019-01-13T15:21:04.319Z,9.40
2019-01-13T15:23:38.335Z,9.40
2019-01-13T15:26:09.403Z,9.40
2019-01-13T15:28:39.305Z,9.40
2019-01-13T15:31:11.455Z,9.40
2019-01-13T15:33:43.961Z,9.40
2019-01-13T15:36:14.081Z,9.40
2019-01-13T15:38:47.066Z,9.40
2019-01-13T15:41:18.894Z,9.40
2019-01-13T15:43:48.795Z,9.40
2019-01-13T15:46:21.200Z,9.30
2019-01-13T15:48:51.226Z,9.30
2019-01-13T15:51:20.987Z,9.30
2019-01-13T15:53:50.972Z,9.40
2019-01-13T15:56:23.811Z,9.40
2019-01-13T15:58:53.662Z,9.30
2019-01-13T16:01:23.559Z,9.30
2019-01-13T16:04:05.376Z,9.30
2019-01-13T16:06:36.584Z,9.30
2019-01-13T16:09:08.567Z,9.30
2019-01-13T16:11:41.489Z,9.30
2019-01-13T16:14:12.458Z,9.30
2019-01-13T16:16:43.199Z,9.30
2019-01-13T16:19:13.013Z,9.30
2019-01-13T16:21:42.836Z,9.30
2019-01-13T16:24:13.982Z,9.30
2019-01-13T16:26:43.824Z,9.40
2019-01-13T16:29:14.790Z,9.40
2019-01-13T16:31:44.558Z,9.30
2019-01-13T16:34:21.558Z,9.30
2019-01-13T16:36:47.348Z,9.40
2019-01-13T16:39:17.350Z,9.40
2019-01-13T16:41:49.002Z,9.40
2019-01-13T16:44:21.732Z,9.40
2019-01-13T16:46:52.754Z,9.40
2019-01-13T16:49:25.297Z,9.40
2019-01-13T16:51:55.238Z,9.40
2019-01-13T16:54:27.202Z,9.40
2019-01-13T16:56:59.127Z,9.40
2019-01-13T16:59:29.239Z,9.40
2019-01-13T17:02:00.666Z,9.40
2019-01-13T17:04:31.556Z,9.40
2019-01-13T17:07:03.287Z,9.40
2019-01-13T17:09:36.149Z,9.40
2019-01-13T17:12:07.664Z,9.50
2019-01-13T17:14:38.512Z,9.50
2019-01-13T17:17:08.417Z,9.50
2019-01-13T17:19:38.233Z,9.50
2019-01-13T17:22:07.950Z,9.50
2019-01-13T17:24:38.258Z,9.50
2019-01-13T17:27:10.699Z,9.50
2019-01-13T17:29:40.519Z,9.50
2019-01-13T17:32:11.489Z,9.40
2019-01-13T17:34:41.428Z,9.40
2019-01-13T17:37:21.229Z,9.30
2019-01-13T17:39:50.947Z,9.20
2019-01-13T17:42:21.795Z,8.90
2019-01-13T17:44:51.682Z,8.50
2019-01-13T17:47:21.421Z,8.20
2019-01-13T17:49:51.036Z,8.00
2019-01-13T17:52:46.310Z,7.90
2019-01-13T17:55:52.752Z,7.90
2019-01-13T17:58:22.832Z,7.80
2019-01-13T18:00:54.449Z,7.80
2019-01-13T18:03:33.652Z,7.80
2019-01-13T18:06:05.813Z,7.80
2019-01-13T18:08:42.342Z,7.70
2019-01-13T18:11:12.319Z,7.70
2019-01-13T18:13:44.931Z,7.70
2019-01-13T18:16:20.878Z,7.70
2019-01-13T18:18:51.394Z,7.70
2019-01-13T18:24:12.902Z,7.80
2019-01-13T18:26:45.463Z,7.80
2019-01-13T18:29:15.219Z,7.80
2019-01-13T18:31:54.128Z,7.80
2019-01-13T18:34:24.366Z,7.80
2019-01-13T18:36:56.483Z,7.80
2019-01-13T18:39:29.273Z,7.80
2019-01-13T18:42:05.484Z,7.80
2019-01-13T18:44:36.425Z,7.80
2019-01-13T18:47:11.594Z,7.80
2019-01-13T18:49:50.829Z,7.90
2019-01-13T18:52:32.993Z,7.90
2019-01-13T18:55:03.372Z,7.90
2019-01-13T18:57:35.053Z,7.90
2019-01-13T19:00:08.249Z,8.00
2019-01-13T19:02:38.282Z,8.00
2019-01-13T19:05:14.542Z,8.00
2019-01-13T19:07:46.615Z,8.10
2019-01-13T19:10:21.679Z,8.10
2019-01-13T19:13:00.259Z,8.10
2019-01-13T19:15:33.967Z,8.10
2019-01-13T19:18:07.360Z,8.10
2019-01-13T19:20:47.017Z,8.10
2019-01-13T19:23:17.434Z,8.20
2019-01-13T19:25:50.245Z,8.20
2019-01-13T19:28:22.204Z,8.20
2019-01-13T19:30:57.340Z,8.10
2019-01-13T19:33:32.254Z,8.10
2019-01-13T19:36:02.482Z,8.00
2019-01-13T19:38:35.740Z,8.00
2019-01-13T19:41:10.624Z,8.10
2019-01-13T19:43:45.468Z,8.00
2019-01-13T19:46:17.146Z,8.00
2019-01-13T19:48:52.661Z,7.90
2019-01-13T19:51:25.525Z,7.90
2019-01-13T19:53:58.584Z,7.90
2019-01-13T19:56:29.347Z,7.90
2019-01-13T19:59:08.880Z,7.90
2019-01-13T20:01:43.106Z,7.80
2019-01-13T20:04:19.353Z,7.90
2019-01-13T20:06:55.429Z,7.80
2019-01-13T20:09:31.292Z,7.90
2019-01-13T20:12:03.360Z,7.80
2019-01-13T20:14:35.317Z,7.90
2019-01-13T20:17:07.971Z,7.90
2019-01-13T20:19:43.165Z,7.90
2019-01-13T20:22:14.497Z,7.90
2019-01-13T20:24:44.303Z,7.80
2019-01-13T20:27:15.610Z,7.80
2019-01-13T20:29:45.591Z,7.80
2019-01-13T20:32:23.185Z,7.80
2019-01-13T20:34:56.338Z,7.90
2019-01-13T20:37:27.880Z,7.90
2019-01-13T20:39:57.985Z,7.90
2019-01-13T20:42:27.777Z,7.90
2019-01-13T20:44:59.466Z,7.90
2019-01-13T20:47:29.458Z,7.80
2019-01-13T20:50:00.249Z,7.70
2019-01-13T20:52:34.006Z,7.60
2019-01-13T20:55:10.020Z,7.50
2019-01-13T20:57:41.422Z,7.50
2019-01-13T21:00:22.946Z,7.50
2019-01-13T21:02:59.737Z,7.50
2019-01-13T21:05:35.367Z,7.40
2019-01-13T21:08:05.798Z,7.40
2019-01-13T21:10:37.779Z,7.40
2019-01-13T21:13:10.353Z,7.40
2019-01-13T21:15:40.417Z,7.40
2019-01-13T21:18:13.414Z,7.40
2019-01-13T21:20:44.244Z,7.40
2019-01-13T21:23:13.912Z,7.30
2019-01-13T21:25:44.653Z,7.30
2019-01-13T21:28:14.545Z,7.20
2019-01-13T21:30:44.328Z,7.20
2019-01-13T21:33:13.991Z,7.20
2019-01-13T21:35:43.932Z,7.10
2019-01-13T21:38:13.667Z,7.00
2019-01-13T21:40:43.488Z,6.80
2019-01-13T21:43:13.333Z,6.70
2019-01-13T21:45:43.115Z,6.70
2019-01-13T21:48:13.825Z,6.70
2019-01-13T21:50:43.650Z,6.70
2019-01-13T21:53:13.486Z,6.70
2019-01-13T21:55:43.409Z,6.70
2019-01-13T21:58:13.531Z,6.80
2019-01-13T22:00:43.371Z,6.90
2019-01-13T22:03:13.209Z,6.90
2019-01-13T22:05:43.074Z,6.90
2019-01-13T22:08:12.964Z,6.90
2019-01-13T22:10:43.731Z,6.90
2019-01-13T22:13:13.502Z,6.90
2019-01-13T22:15:43.447Z,6.90
2019-01-13T22:18:13.067Z,6.90
2019-01-13T22:20:42.969Z,7.00
2019-01-13T22:23:12.935Z,7.00
2019-01-13T22:25:42.848Z,7.00
2019-01-13T22:28:12.547Z,7.00
2019-01-13T22:30:42.386Z,6.90
2019-01-13T22:33:12.272Z,7.00
2019-01-13T22:35:48.389Z,7.00
2019-01-13T22:38:18.442Z,7.00
2019-01-13T22:40:48.268Z,7.00
2019-01-13T22:43:18.098Z,7.10
2019-01-13T22:45:47.941Z,7.10
2019-01-13T22:48:17.666Z,7.00
2019-01-13T22:50:48.505Z,7.10
2019-01-13T22:53:18.395Z,7.00
2019-01-13T22:55:48.094Z,7.00
2019-01-13T22:58:17.881Z,6.90
2019-01-13T23:00:59.459Z,6.90
2019-01-13T23:03:31.107Z,6.80
2019-01-13T23:06:00.849Z,6.80
2019-01-13T23:08:31.674Z,6.70
2019-01-13T23:11:05.615Z,6.80
2019-01-13T23:13:35.525Z,6.70
2019-01-13T23:16:05.496Z,6.70
2019-01-13T23:18:35.471Z,6.80
2019-01-13T23:21:05.454Z,6.80
2019-01-13T23:23:36.690Z,6.80
2019-01-13T23:26:06.607Z,6.80
2019-01-13T23:28:37.288Z,6.90
2019-01-13T23:31:07.234Z,6.90
2019-01-13T23:33:36.888Z,6.80
2019-01-13T23:36:06.648Z,6.80
2019-01-13T23:38:38.374Z,6.80
2019-01-13T23:41:08.110Z,6.90
2019-01-13T23:43:38.060Z,6.80
2019-01-13T23:46:07.849Z,6.80
2019-01-13T23:48:37.667Z,6.80
2019-01-13T23:51:07.448Z,6.70
2019-01-13T23:53:55.363Z,6.80
2019-01-13T23:56:25.234Z,6.80
2019-01-13T23:58:56.008Z,6.80
